Time;durP1;ratioP1;P1;durP2;ratioP2;P2;SDS_P1;SDS_P2;PMS_P1;PMS_P2;Temp;Humidity;BMP_temperature;BMP_pressure;BME280_temperature;BME280_humidity;BME280_pressure;Samples;Min_cycle;Max_cycle;Signal;HPM_P1;HPM_P2
2022/10/18 00:00:00;;;;;;;8.40;7.03;;;15.10;99.90;;;;;;6160556;23;20898;-82
2022/10/18 00:02:27;;;;;;;8.67;7.83;;;15.10;99.90;;;;;;6160906;23;20417;-82
2022/10/18 00:04:54;;;;;;;9.77;8.70;;;15.10;99.90;;;;;;6160728;23;20420;-82
2022/10/18 00:07:20;;;;;;;9.43;8.43;;;15.10;99.90;;;;;;6160588;23;20461;-83
2022/10/18 00:09:47;;;;;;;8.63;7.73;;;15.00;99.90;;;;;;6159609;23;20407;-82
2022/10/18 00:12:15;;;;;;;8.50;7.77;;;15.00;99.90;;;;;;6161920;23;20402;-82
2022/10/18 00:14:42;;;;;;;7.80;7.00;;;15.10;99.90;;;;;;6160978;23;20413;-82
2022/10/18 00:17:09;;;;;;;6.97;6.37;;;15.10;99.90;;;;;;6160140;23;20408;-83
2022/10/18 00:19:35;;;;;;;7.40;6.70;;;15.00;99.90;;;;;;6160046;23;20416;-83
2022/10/18 00:22:02;;;;;;;9.33;8.43;;;15.00;99.90;;;;;;6160113;23;20916;-82
2022/10/18 00:24:29;;;;;;;8.70;7.90;;;15.00;99.90;;;;;;6160974;23;20415;-82
2022/10/18 00:26:56;;;;;;;7.50;6.80;;;15.00;99.90;;;;;;6160217;23;20411;-82
2022/10/18 00:29:24;;;;;;;7.67;7.00;;;15.00;99.90;;;;;;6160530;23;20414;-82
2022/10/18 00:31:50;;;;;;;7.73;6.77;;;15.00;99.90;;;;;;6160602;23;20433;-83
2022/10/18 00:34:17;;;;;;;6.97;6.37;;;14.90;99.90;;;;;;6160300;23;20410;-82
2022/10/18 00:36:45;;;;;;;11.23;6.60;;;14.80;99.90;;;;;;6160520;23;20409;-83
2022/10/18 00:39:17;;;;;;;8.10;7.30;;;14.80;99.90;;;;;;6160183;23;20413;-83
2022/10/18 00:41:44;;;;;;;7.93;7.17;;;14.80;99.90;;;;;;6160559;23;20426;-82
2022/10/18 00:44:48;;;;;;;9.00;6.70;;;14.80;99.90;;;;;;6159908;23;20418;-82
2022/10/18 00:47:17;;;;;;;6.20;5.57;;;14.80;99.90;;;;;;6160106;23;20446;-83
2022/10/18 00:49:48;;;;;;;8.23;7.27;;;14.90;99.90;;;;;;6160253;23;20794;-82
2022/10/18 00:52:19;;;;;;;8.37;7.00;;;14.90;99.90;;;;;;6160196;23;20717;-83
2022/10/18 00:54:47;;;;;;;11.17;7.53;;;14.90;99.90;;;;;;6159633;23;20400;-82
2022/10/18 00:57:14;;;;;;;7.47;6.43;;;14.90;99.90;;;;;;6160158;23;20498;-83
2022/10/18 00:59:42;;;;;;;10.20;7.53;;;14.90;99.90;;;;;;6159820;23;20771;-83
2022/10/18 01:02:09;;;;;;;6.53;5.93;;;15.00;99.90;;;;;;6159830;23;20434;-82
2022/10/18 01:04:37;;;;;;;6.50;5.70;;;15.00;99.90;;;;;;6159796;23;20406;-83
2022/10/18 01:07:12;;;;;;;7.50;6.80;;;15.10;99.90;;;;;;6159610;23;20420;-82
2022/10/18 01:09:43;;;;;;;9.20;6.60;;;15.10;99.90;;;;;;6174105;23;20402;-81
2022/10/18 01:12:22;;;;;;;5.77;5.17;;;15.10;99.90;;;;;;6182233;23;20415;-82
2022/10/18 01:14:55;;;;;;;5.03;4.63;;;15.10;99.90;;;;;;6173298;23;20453;-82
2022/10/18 01:17:28;;;;;;;5.73;5.07;;;15.20;99.90;;;;;;6159320;23;20391;-82
2022/10/18 01:20:30;;;;;;;6.77;6.17;;;15.20;99.90;;;;;;6159745;23;20431;-82
2022/10/18 01:23:01;;;;;;;6.83;5.87;;;15.20;99.90;;;;;;6160151;23;20767;-83
2022/10/18 01:25:40;;;;;;;6.03;5.53;;;15.20;99.90;;;;;;6159322;23;20406;-82
2022/10/18 01:28:15;;;;;;;6.97;6.33;;;15.20;99.90;;;;;;6158977;23;20438;-82
2022/10/18 01:30:54;;;;;;;7.60;6.67;;;15.20;99.90;;;;;;6159185;23;20934;-82
2022/10/18 01:33:28;;;;;;;6.00;5.00;;;15.30;99.90;;;;;;6159476;23;20410;-82
2022/10/18 01:36:00;;;;;;;6.60;5.33;;;15.30;99.90;;;;;;6159543;23;20402;-82
2022/10/18 01:38:31;;;;;;;6.90;5.00;;;15.40;99.90;;;;;;6159948;23;20690;-82
2022/10/18 01:40:59;;;;;;;6.23;5.60;;;15.40;99.90;;;;;;6159264;23;20431;-82
2022/10/18 01:43:27;;;;;;;7.10;4.97;;;15.40;99.90;;;;;;6159117;23;20417;-82
2022/10/18 01:45:57;;;;;;;6.37;5.80;;;15.50;99.90;;;;;;6161087;23;20412;-82
2022/10/18 01:48:24;;;;;;;5.20;4.70;;;15.50;99.90;;;;;;6176290;23;20527;-82
2022/10/18 01:50:52;;;;;;;10.57;6.20;;;15.60;99.90;;;;;;6160657;23;20427;-82
2022/10/18 01:53:28;;;;;;;5.37;4.80;;;15.60;99.90;;;;;;6159772;23;20899;-83
2022/10/18 01:56:19;;;;;;;5.87;3.63;;;15.60;99.90;;;;;;6159284;23;20990;-82
2022/10/18 01:58:53;;;;;;;5.80;4.97;;;15.60;99.90;;;;;;6158654;23;20428;-83
2022/10/18 02:01:31;;;;;;;6.23;4.30;;;15.70;99.90;;;;;;6159622;23;20429;-83
2022/10/18 02:04:06;;;;;;;7.87;5.13;;;15.70;99.90;;;;;;6158839;23;20399;-82
2022/10/18 02:06:38;;;;;;;4.93;3.70;;;15.70;99.90;;;;;;6159586;23;20407;-83
2022/10/18 02:09:12;;;;;;;6.63;4.90;;;15.80;99.90;;;;;;6157775;23;20930;-82
2022/10/18 02:11:41;;;;;;;7.63;5.87;;;15.80;99.90;;;;;;6158777;23;20461;-82
2022/10/18 02:14:10;;;;;;;5.10;4.57;;;15.80;99.90;;;;;;6159880;23;20419;-82
2022/10/18 02:16:41;;;;;;;5.90;5.40;;;15.90;99.90;;;;;;6159320;23;20426;-82
2022/10/18 02:19:14;;;;;;;6.40;5.13;;;15.90;99.90;;;;;;6159038;23;20399;-82
2022/10/18 02:21:43;;;;;;;9.50;6.00;;;15.90;99.90;;;;;;6159163;23;20431;-82
2022/10/18 02:24:12;;;;;;;6.97;6.27;;;15.80;99.90;;;;;;6159042;23;20412;-82
2022/10/18 02:26:39;;;;;;;5.47;5.00;;;15.80;99.90;;;;;;6158943;23;20431;-83
2022/10/18 02:29:07;;;;;;;5.90;5.30;;;15.90;99.90;;;;;;6158489;23;20449;-83
2022/10/18 02:31:41;;;;;;;7.50;5.47;;;15.90;99.90;;;;;;6158176;23;20444;-82
2022/10/18 02:34:15;;;;;;;6.10;5.00;;;15.90;99.90;;;;;;6158786;23;20397;-82
2022/10/18 02:36:45;;;;;;;4.80;4.37;;;16.00;99.90;;;;;;6159273;23;20398;-82
2022/10/18 02:39:14;;;;;;;4.87;4.47;;;16.00;99.90;;;;;;6158588;23;20410;-82
2022/10/18 02:41:42;;;;;;;5.30;4.13;;;16.10;99.90;;;;;;6159175;23;20431;-82
2022/10/18 02:44:09;;;;;;;4.73;4.23;;;16.10;99.90;;;;;;6158519;23;20419;-83
2022/10/18 02:46:36;;;;;;;5.57;4.70;;;16.10;99.90;;;;;;6159356;23;20408;-82
2022/10/18 02:49:04;;;;;;;5.90;4.70;;;16.10;99.90;;;;;;6158045;23;20447;-82
2022/10/18 02:51:31;;;;;;;6.83;5.00;;;16.10;99.90;;;;;;6158498;23;20431;-82
2022/10/18 02:53:57;;;;;;;7.60;4.77;;;16.10;99.90;;;;;;6159453;23;20412;-82
2022/10/18 02:56:24;;;;;;;6.10;4.77;;;16.10;99.90;;;;;;6159518;23;20419;-83
2022/10/18 02:58:51;;;;;;;5.33;4.60;;;16.20;99.90;;;;;;6159056;23;20412;-83
2022/10/18 03:01:18;;;;;;;8.77;5.03;;;16.20;99.90;;;;;;6159673;23;20432;-83
2022/10/18 03:03:45;;;;;;;5.20;4.60;;;16.20;99.90;;;;;;6159253;23;20518;-83
2022/10/18 03:06:13;;;;;;;6.97;4.20;;;16.20;99.90;;;;;;6159523;23;20467;-82
2022/10/18 03:08:39;;;;;;;4.10;3.57;;;16.30;99.90;;;;;;6159253;23;20441;-83
2022/10/18 03:11:06;;;;;;;5.20;4.50;;;16.30;99.90;;;;;;6159672;23;20470;-83
2022/10/18 03:13:33;;;;;;;7.50;4.27;;;16.20;99.90;;;;;;6159071;23;20418;-83
2022/10/18 03:16:00;;;;;;;4.97;4.47;;;16.30;99.90;;;;;;6159913;23;20415;-83
2022/10/18 03:18:27;;;;;;;5.07;4.70;;;16.30;99.90;;;;;;6159176;23;20407;-83
2022/10/18 03:20:54;;;;;;;7.53;4.50;;;16.30;99.90;;;;;;6159081;23;20981;-83
2022/10/18 03:23:22;;;;;;;6.00;5.50;;;16.30;99.90;;;;;;6161645;23;20423;-83
2022/10/18 03:25:49;;;;;;;5.43;4.50;;;16.30;99.90;;;;;;6161474;23;20415;-82
2022/10/18 03:28:15;;;;;;;4.67;4.20;;;16.30;99.90;;;;;;6160528;23;20447;-83
2022/10/18 03:30:42;;;;;;;5.60;3.93;;;16.20;99.90;;;;;;6160812;23;20439;-83
2022/10/18 03:33:09;;;;;;;6.80;4.00;;;16.10;99.90;;;;;;6161195;23;20412;-82
2022/10/18 03:35:36;;;;;;;5.13;4.73;;;16.10;99.90;;;;;;6161045;23;20404;-82
2022/10/18 03:38:03;;;;;;;5.87;4.80;;;16.10;99.90;;;;;;6161122;23;20418;-82
2022/10/18 03:40:31;;;;;;;5.53;4.20;;;16.20;99.90;;;;;;6161183;23;20924;-82
2022/10/18 03:42:57;;;;;;;5.87;4.17;;;16.20;99.90;;;;;;6161196;23;20426;-82
2022/10/18 03:45:24;;;;;;;6.80;4.70;;;16.20;99.90;;;;;;6161192;23;20418;-82
2022/10/18 03:47:51;;;;;;;5.90;5.10;;;16.10;99.90;;;;;;6160203;23;20431;-83
2022/10/18 03:50:18;;;;;;;5.10;4.60;;;16.10;99.90;;;;;;6160919;23;20791;-82
2022/10/18 03:52:44;;;;;;;6.50;4.30;;;16.00;99.90;;;;;;6161213;23;20419;-83
2022/10/18 03:55:11;;;;;;;8.30;4.87;;;16.00;99.90;;;;;;6160828;23;20422;-83
2022/10/18 03:57:39;;;;;;;4.80;4.17;;;16.00;99.90;;;;;;6165814;23;20415;-82
2022/10/18 04:00:07;;;;;;;5.53;4.27;;;15.90;99.90;;;;;;6182194;23;20419;-82
2022/10/18 04:02:34;;;;;;;7.47;6.07;;;15.90;99.90;;;;;;6166630;23;20405;-82
2022/10/18 04:05:01;;;;;;;5.67;5.20;;;15.90;99.90;;;;;;6161130;23;20416;-83
2022/10/18 04:07:28;;;;;;;6.63;5.03;;;15.80;99.90;;;;;;6161316;23;20502;-82
2022/10/18 04:09:55;;;;;;;4.97;4.57;;;15.60;99.90;;;;;;6160045;23;20473;-82
2022/10/18 04:12:21;;;;;;;5.60;5.10;;;15.60;99.90;;;;;;6163974;23;20414;-82
2022/10/18 04:14:49;;;;;;;15.80;5.10;;;15.50;99.90;;;;;;6167840;23;20418;-83
2022/10/18 04:17:16;;;;;;;6.17;5.30;;;15.50;99.90;;;;;;6161022;23;20433;-82
2022/10/18 04:19:43;;;;;;;5.47;4.60;;;15.50;99.90;;;;;;6160132;23;20413;-83
2022/10/18 04:22:10;;;;;;;5.10;4.60;;;15.40;99.90;;;;;;6161266;23;20421;-82
2022/10/18 04:24:37;;;;;;;5.80;5.27;;;15.30;99.90;;;;;;6160247;23;20429;-83
2022/10/18 04:27:04;;;;;;;4.90;4.50;;;15.30;99.90;;;;;;6160608;23;20412;-82
2022/10/18 04:29:31;;;;;;;5.63;4.43;;;15.30;99.90;;;;;;6160057;23;20453;-82
2022/10/18 04:31:59;;;;;;;11.53;4.97;;;15.30;99.90;;;;;;6160489;23;20498;-82
2022/10/18 04:34:26;;;;;;;6.87;5.50;;;15.20;99.90;;;;;;6160302;23;20419;-82
2022/10/18 04:36:53;;;;;;;14.67;5.13;;;15.20;99.90;;;;;;6161063;23;20493;-83
2022/10/18 04:39:20;;;;;;;5.90;5.30;;;15.20;99.90;;;;;;6160224;23;20411;-82
2022/10/18 04:41:46;;;;;;;7.50;5.07;;;15.20;99.90;;;;;;6160110;23;20996;-82
2022/10/18 04:44:13;;;;;;;5.23;4.60;;;15.20;99.90;;;;;;6160536;23;20411;-82
2022/10/18 04:46:40;;;;;;;6.27;5.67;;;15.20;99.90;;;;;;6160540;23;20422;-82
2022/10/18 04:49:08;;;;;;;6.70;4.50;;;15.10;99.90;;;;;;6159875;23;20450;-82
2022/10/18 04:51:35;;;;;;;9.60;5.27;;;15.10;99.90;;;;;;6159524;23;20518;-83
2022/10/18 04:54:02;;;;;;;5.50;5.00;;;15.10;99.90;;;;;;6159800;23;20417;-82
2022/10/18 04:56:28;;;;;;;6.50;5.27;;;15.10;99.90;;;;;;6160178;23;20418;-82
2022/10/18 04:58:55;;;;;;;7.20;5.57;;;15.10;99.90;;;;;;6159676;23;20414;-82
2022/10/18 05:01:22;;;;;;;7.80;5.20;;;15.10;99.90;;;;;;6160093;23;20440;-82
2022/10/18 05:03:52;;;;;;;5.73;5.23;;;15.10;99.90;;;;;;6160047;23;20940;-82
2022/10/18 05:06:20;;;;;;;5.67;4.87;;;15.00;99.90;;;;;;6160105;23;20412;-82
2022/10/18 05:08:47;;;;;;;5.70;5.10;;;15.00;99.90;;;;;;6169609;23;20435;-82
2022/10/18 05:14:49;;;;;;;6.90;6.20;;;14.70;99.90;;;;;;6018878;23;20555;-87
2022/10/18 05:37:59;;;;;;;5.50;5.00;;;15.10;99.90;;;;;;5984675;23;20408;-85
2022/10/18 05:40:28;;;;;;;7.20;5.03;;;15.10;99.90;;;;;;6030468;23;20510;-85
2022/10/18 05:42:55;;;;;;;5.57;4.60;;;15.10;99.90;;;;;;6098294;23;20436;-86
2022/10/18 05:45:21;;;;;;;5.03;4.57;;;15.20;99.90;;;;;;6101034;23;20409;-86
2022/10/18 05:47:48;;;;;;;4.80;4.40;;;15.20;99.90;;;;;;6101497;23;20407;-86
2022/10/18 05:50:15;;;;;;;4.30;3.90;;;15.40;99.90;;;;;;6101554;23;20445;-86
2022/10/18 05:52:42;;;;;;;6.63;4.43;;;15.40;99.90;;;;;;6101338;23;20436;-86
2022/10/18 05:55:09;;;;;;;5.50;4.97;;;15.50;99.90;;;;;;6102413;23;20414;-85
2022/10/18 05:57:37;;;;;;;6.90;4.80;;;15.50;99.90;;;;;;6101475;23;20417;-85
2022/10/18 06:00:05;;;;;;;6.37;4.17;;;15.60;99.90;;;;;;6100968;23;20483;-87
2022/10/18 06:02:31;;;;;;;4.57;4.17;;;15.70;99.90;;;;;;6106031;23;20433;-85
2022/10/18 06:04:58;;;;;;;6.00;3.67;;;15.80;99.90;;;;;;6117493;23;20429;-86
2022/10/18 06:07:25;;;;;;;4.40;4.10;;;15.90;99.90;;;;;;6119116;23;20416;-85
2022/10/18 06:09:52;;;;;;;7.57;3.97;;;15.90;99.90;;;;;;6101536;23;20542;-87
2022/10/18 06:12:19;;;;;;;4.23;3.83;;;16.10;99.90;;;;;;6096556;23;20858;-87
2022/10/18 06:14:48;;;;;;;4.23;3.93;;;16.10;99.90;;;;;;6097411;23;20489;-87
2022/10/18 06:17:15;;;;;;;5.37;4.43;;;16.20;99.90;;;;;;6096817;23;20897;-87
2022/10/18 06:19:43;;;;;;;7.70;4.50;;;16.20;99.90;;;;;;6096288;23;20437;-86
2022/10/18 06:22:10;;;;;;;6.30;4.50;;;16.30;99.90;;;;;;6097391;23;20435;-85
2022/10/18 06:24:37;;;;;;;5.87;4.70;;;16.40;99.90;;;;;;6097612;23;20414;-87
2022/10/18 06:27:07;;;;;;;4.50;4.10;;;16.50;99.90;;;;;;6098623;23;20420;-85
2022/10/18 06:29:36;;;;;;;4.10;3.70;;;16.60;99.90;;;;;;6098642;23;20773;-86
2022/10/18 06:32:06;;;;;;;5.03;3.80;;;16.70;99.90;;;;;;6099670;23;20924;-86
2022/10/18 06:34:33;;;;;;;5.07;4.67;;;16.70;99.90;;;;;;6098529;23;20414;-87
2022/10/18 06:37:01;;;;;;;3.57;3.27;;;16.80;99.90;;;;;;6097744;23;20421;-86
2022/10/18 06:39:27;;;;;;;4.20;3.53;;;16.90;99.90;;;;;;6095250;23;20748;-84
2022/10/18 06:41:55;;;;;;;4.70;4.30;;;17.00;99.90;;;;;;6094623;23;20439;-84
2022/10/18 06:44:22;;;;;;;4.93;4.00;;;17.10;99.90;;;;;;6094997;23;20400;-84
2022/10/18 06:46:50;;;;;;;7.77;4.70;;;17.20;99.90;;;;;;6094726;23;20937;-84
2022/10/18 06:49:18;;;;;;;4.10;3.70;;;17.30;99.90;;;;;;6095619;23;20446;-84
2022/10/18 06:51:45;;;;;;;4.53;4.10;;;17.50;99.90;;;;;;6096142;23;20444;-84
2022/10/18 06:54:12;;;;;;;3.73;3.40;;;17.50;99.90;;;;;;6102663;23;20425;-84
2022/10/18 06:56:43;;;;;;;3.97;3.57;;;17.50;99.90;;;;;;6123417;23;20422;-85
2022/10/18 06:59:17;;;;;;;5.27;4.87;;;17.60;99.90;;;;;;6123092;23;20451;-86
2022/10/18 07:01:47;;;;;;;3.50;3.30;;;17.70;99.90;;;;;;6123610;23;20435;-85
2022/10/18 07:04:17;;;;;;;5.00;4.50;;;17.80;99.90;;;;;;6116126;23;20405;-85
2022/10/18 07:06:45;;;;;;;3.67;3.37;;;17.80;99.90;;;;;;6095680;23;20414;-86
2022/10/18 07:09:12;;;;;;;4.40;4.00;;;17.80;99.90;;;;;;6095491;23;20469;-85
2022/10/18 07:11:39;;;;;;;4.70;4.10;;;17.90;99.90;;;;;;6091271;23;20545;-87
2022/10/18 07:14:06;;;;;;;4.73;3.83;;;17.90;99.90;;;;;;6095678;23;20414;-87
2022/10/18 07:16:34;;;;;;;6.03;4.50;;;18.00;99.90;;;;;;6095454;23;20502;-86
2022/10/18 07:19:01;;;;;;;6.47;3.90;;;18.00;99.90;;;;;;6094991;23;20423;-86
2022/10/18 07:21:28;;;;;;;4.67;4.27;;;18.00;99.90;;;;;;6095291;23;20444;-83
2022/10/18 07:23:56;;;;;;;4.23;3.70;;;18.10;99.90;;;;;;6096279;23;20430;-86
2022/10/18 07:26:26;;;;;;;4.37;4.07;;;18.20;99.90;;;;;;6095090;23;20408;-86
2022/10/18 07:28:59;;;;;;;4.60;4.20;;;18.30;99.90;;;;;;6094677;23;20825;-86
2022/10/18 07:31:26;;;;;;;4.70;4.30;;;18.30;99.90;;;;;;6093310;23;20432;-84
2022/10/18 07:33:53;;;;;;;5.17;4.20;;;18.40;99.90;;;;;;6094837;23;20924;-84
2022/10/18 07:36:21;;;;;;;4.40;4.10;;;18.40;99.90;;;;;;6095378;23;20422;-86
2022/10/18 07:38:47;;;;;;;8.20;4.00;;;18.40;99.90;;;;;;6096052;23;20954;-86
2022/10/18 07:41:16;;;;;;;4.80;4.20;;;18.40;99.90;;;;;;6094647;23;20463;-86
2022/10/18 07:43:47;;;;;;;4.47;4.17;;;18.40;99.90;;;;;;6094968;23;20482;-86
2022/10/18 07:46:21;;;;;;;4.77;3.90;;;18.50;99.90;;;;;;6094630;23;20404;-86
2022/10/18 07:49:09;;;;;;;4.73;4.30;;;18.60;99.90;;;;;;6093508;23;20392;-86
2022/10/18 07:51:35;;;;;;;4.07;3.67;;;18.80;99.90;;;;;;6095453;23;20457;-86
2022/10/18 07:54:44;;;;;;;7.10;4.13;;;19.00;99.90;;;;;;6094807;23;20439;-88
2022/10/18 07:57:43;;;;;;;4.93;4.40;;;19.20;99.90;;;;;;6094490;23;20444;-86
2022/10/18 08:00:19;;;;;;;5.07;4.40;;;19.20;99.90;;;;;;6097303;23;20557;-86
2022/10/18 08:02:45;;;;;;;4.33;3.80;;;19.20;99.90;;;;;;6095346;23;20752;-83
2022/10/18 08:05:12;;;;;;;6.03;4.30;;;19.20;99.90;;;;;;6095419;23;20416;-84
2022/10/18 08:07:39;;;;;;;6.30;4.37;;;19.30;99.90;;;;;;6095040;23;20415;-84
2022/10/18 08:10:06;;;;;;;4.10;3.57;;;19.30;99.90;;;;;;6096952;23;20434;-85
2022/10/18 08:12:34;;;;;;;4.97;4.43;;;19.30;99.90;;;;;;6096065;23;20968;-84
2022/10/18 08:15:04;;;;;;;3.87;3.47;;;19.40;99.90;;;;;;6097001;23;20416;-85
2022/10/18 08:17:31;;;;;;;5.83;4.00;;;19.40;99.90;;;;;;6096951;23;20511;-85
2022/10/18 08:19:57;;;;;;;4.80;4.27;;;19.50;99.90;;;;;;6096815;23;20451;-84
2022/10/18 08:22:24;;;;;;;4.77;3.87;;;19.40;99.90;;;;;;6096982;23;20432;-85
2022/10/18 08:24:51;;;;;;;4.67;4.30;;;19.50;99.90;;;;;;6096878;23;20412;-85
2022/10/18 08:27:21;;;;;;;4.23;3.90;;;19.50;99.90;;;;;;6096448;23;20412;-85
2022/10/18 08:29:52;;;;;;;4.13;3.67;;;19.50;99.90;;;;;;6096803;23;20411;-86
2022/10/18 08:32:28;;;;;;;4.23;3.90;;;19.60;99.90;;;;;;6096968;23;20820;-86
2022/10/18 08:34:57;;;;;;;3.80;3.47;;;19.70;99.90;;;;;;6097019;23;20451;-86
2022/10/18 08:37:24;;;;;;;4.10;3.67;;;19.70;99.90;;;;;;6096787;23;20459;-86
2022/10/18 08:40:05;;;;;;;;;;;;;;;;;;;;;
2022/10/18 08:43:03;;;;;;;6.33;3.67;;;19.80;99.90;;;;;;6095092;23;20439;-86
2022/10/18 08:45:40;;;;;;;5.17;3.73;;;19.90;99.90;;;;;;6047780;23;20420;-85
2022/10/18 08:48:16;;;;;;;4.20;3.80;;;19.90;99.90;;;;;;6095590;23;20441;-85
2022/10/18 08:50:44;;;;;;;5.10;4.63;;;20.00;99.90;;;;;;6096936;23;20391;-86
2022/10/18 08:53:17;;;;;;;3.67;3.10;;;20.00;99.90;;;;;;6096465;23;20436;-86
2022/10/18 08:55:51;;;;;;;4.80;4.37;;;20.00;99.90;;;;;;6097111;23;20863;-86
2022/10/18 08:58:21;;;;;;;4.03;3.73;;;20.00;99.90;;;;;;6110925;23;20416;-86
2022/10/18 09:01:02;;;;;;;7.70;4.50;;;20.00;99.90;;;;;;6104178;23;20509;-86
2022/10/18 09:04:01;;;;;;;4.20;3.53;;;20.00;99.90;;;;;;6097567;23;20426;-86
2022/10/18 09:06:39;;;;;;;4.53;3.77;;;20.00;99.90;;;;;;6095575;23;20419;-86
2022/10/18 09:09:33;;;;;;;4.40;4.10;;;19.90;99.90;;;;;;6096541;23;20406;-84
2022/10/18 09:12:20;;;;;;;4.13;3.67;;;19.90;99.90;;;;;;6096451;23;20450;-85
2022/10/18 09:15:11;;;;;;;3.80;3.50;;;20.00;99.90;;;;;;6096682;23;20401;-85
2022/10/18 09:17:49;;;;;;;4.00;3.70;;;20.00;99.90;;;;;;6091338;23;20774;-85
2022/10/18 09:20:22;;;;;;;4.30;3.90;;;20.20;99.90;;;;;;6096521;23;20428;-86
2022/10/18 09:22:54;;;;;;;3.77;3.53;;;20.30;99.90;;;;;;6096756;23;20442;-86
2022/10/18 09:25:24;;;;;;;4.33;3.33;;;20.30;99.90;;;;;;6096464;23;20411;-85
2022/10/18 09:27:54;;;;;;;4.03;3.63;;;20.30;99.90;;;;;;6096077;23;20993;-83
2022/10/18 09:30:37;;;;;;;5.50;4.20;;;20.30;99.90;;;;;;6096270;23;20397;-86
2022/10/18 09:33:30;;;;;;;4.67;3.43;;;20.30;99.90;;;;;;6096311;23;20428;-84
2022/10/18 09:36:00;;;;;;;7.20;3.93;;;20.50;99.90;;;;;;6088697;23;20427;-85
2022/10/18 09:38:31;;;;;;;3.27;3.07;;;20.70;99.90;;;;;;6095807;23;20393;-85
2022/10/18 09:41:02;;;;;;;3.83;3.43;;;20.90;99.90;;;;;;6096304;23;20433;-86
2022/10/18 09:43:42;;;;;;;4.00;3.70;;;21.10;99.90;;;;;;6096340;23;20401;-84
2022/10/18 09:46:09;;;;;;;8.70;4.47;;;21.30;99.90;;;;;;6096515;23;20405;-86
2022/10/18 09:48:43;;;;;;;6.40;4.30;;;21.40;99.90;;;;;;6095444;23;20994;-86
2022/10/18 09:51:16;;;;;;;4.80;4.30;;;21.40;99.90;;;;;;6096276;23;20401;-86
2022/10/18 09:53:49;;;;;;;3.83;3.53;;;21.60;99.90;;;;;;6096419;23;20408;-86
2022/10/18 09:56:19;;;;;;;3.97;3.67;;;21.70;99.90;;;;;;6096282;23;20402;-86
2022/10/18 09:58:48;;;;;;;3.30;3.10;;;21.50;99.90;;;;;;6096100;23;20404;-86
2022/10/18 10:01:19;;;;;;;3.23;2.93;;;21.40;99.90;;;;;;6096072;23;20458;-85
2022/10/18 10:03:51;;;;;;;3.60;2.93;;;21.20;99.90;;;;;;6096402;23;20485;-86
2022/10/18 10:06:24;;;;;;;3.40;3.20;;;21.30;99.90;;;;;;6096423;23;20484;-84
2022/10/18 10:08:57;;;;;;;5.60;3.60;;;21.20;99.90;;;;;;6095858;23;20399;-86
2022/10/18 10:11:34;;;;;;;2.60;2.50;;;21.30;99.90;;;;;;6095716;23;20441;-88
2022/10/18 10:14:15;;;;;;;3.97;3.57;;;21.50;99.90;;;;;;6095878;23;20421;-87
2022/10/18 10:16:51;;;;;;;3.73;3.43;;;21.70;99.90;;;;;;6095810;23;20452;-88
2022/10/18 10:19:35;;;;;;;3.93;3.63;;;21.90;99.90;;;;;;6095659;23;20421;-87
2022/10/18 10:22:16;;;;;;;3.93;3.40;;;22.10;99.90;;;;;;6095885;23;20457;-87
2022/10/18 10:28:26;;;;;;;6.30;3.77;;;22.50;99.90;;;;;;6063066;23;20395;-87
2022/10/18 10:30:52;;;;;;;4.43;4.10;;;22.70;99.80;;;;;;6093601;23;20411;-85
2022/10/18 10:33:34;;;;;;;6.90;3.77;;;22.90;99.90;;;;;;6095696;23;20417;-87
2022/10/18 10:36:05;;;;;;;4.27;3.80;;;23.10;99.90;;;;;;6095822;23;20393;-87
2022/10/18 10:38:33;;;;;;;5.17;4.67;;;23.30;99.90;;;;;;6095905;23;20397;-88
2022/10/18 10:41:00;;;;;;;4.30;3.93;;;23.40;99.90;;;;;;6095652;23;20448;-87
2022/10/18 10:43:29;;;;;;;7.10;4.40;;;23.50;99.90;;;;;;6096079;23;20416;-87
2022/10/18 10:46:00;;;;;;;6.50;3.93;;;24.00;99.90;;;;;;6096120;23;20413;-87
2022/10/18 10:48:30;;;;;;;5.97;4.20;;;24.80;99.10;;;;;;6095847;23;20416;-87
2022/10/18 10:51:04;;;;;;;4.40;4.00;;;25.30;97.50;;;;;;6099902;23;20397;-86
2022/10/18 10:53:44;;;;;;;5.17;4.17;;;25.40;96.90;;;;;;6099218;23;20396;-87
2022/10/18 10:56:20;;;;;;;6.17;4.13;;;25.20;96.50;;;;;;6096269;23;20399;-87
2022/10/18 10:58:47;;;;;;;4.97;4.30;;;25.20;96.50;;;;;;6095529;23;20882;-88
2022/10/18 11:01:22;;;;;;;4.77;4.37;;;25.10;96.30;;;;;;6096334;23;20449;-87
2022/10/18 11:03:51;;;;;;;4.37;3.67;;;25.10;96.40;;;;;;6110936;23;20748;-87
2022/10/18 11:06:39;;;;;;;3.90;2.80;;;24.80;96.00;;;;;;6101354;23;20427;-86
2022/10/18 11:09:16;;;;;;;4.60;3.37;;;24.40;96.40;;;;;;6103450;23;20421;-86
2022/10/18 11:11:52;;;;;;;5.03;4.53;;;24.30;97.20;;;;;;6106260;23;20448;-84
2022/10/18 11:14:24;;;;;;;4.07;3.67;;;24.20;97.50;;;;;;6135283;23;20926;-85
2022/10/18 11:16:56;;;;;;;3.90;3.50;;;24.10;97.30;;;;;;6134103;23;20395;-84
2022/10/18 11:19:32;;;;;;;4.97;4.37;;;24.00;97.50;;;;;;6133672;23;20401;-84
2022/10/18 11:22:04;;;;;;;3.97;3.57;;;23.70;97.70;;;;;;6144735;23;20457;-84
2022/10/18 11:24:31;;;;;;;3.50;3.30;;;23.50;98.10;;;;;;6164501;23;20395;-84
2022/10/18 11:27:06;;;;;;;3.70;3.40;;;23.30;98.00;;;;;;6164740;23;20902;-84
2022/10/18 11:29:50;;;;;;;4.53;3.57;;;23.20;98.70;;;;;;6165402;23;20453;-84
2022/10/18 11:32:27;;;;;;;4.37;3.20;;;23.20;98.90;;;;;;6164284;23;20427;-84
2022/10/18 11:35:12;;;;;;;3.63;3.33;;;23.60;98.30;;;;;;6165754;23;20390;-85
2022/10/18 11:37:56;;;;;;;4.60;3.47;;;24.20;97.90;;;;;;6165275;23;20405;-85
2022/10/18 11:40:37;;;;;;;5.77;4.30;;;24.70;97.60;;;;;;6166316;23;20407;-85
2022/10/18 11:43:12;;;;;;;4.40;3.53;;;25.10;96.50;;;;;;6167920;23;20428;-85
2022/10/18 11:45:48;;;;;;;6.10;3.70;;;25.30;95.60;;;;;;6174114;23;20391;-83
2022/10/18 11:48:30;;;;;;;3.97;3.60;;;25.60;95.30;;;;;;6167262;23;20399;-84
2022/10/18 11:51:05;;;;;;;4.40;4.00;;;25.90;95.20;;;;;;6166997;23;20392;-84
2022/10/18 11:53:43;;;;;;;4.67;4.27;;;26.10;94.90;;;;;;6166761;23;20429;-85
2022/10/18 11:56:18;;;;;;;6.23;3.90;;;26.00;94.60;;;;;;6165528;23;20397;-85
2022/10/18 11:59:03;;;;;;;10.33;4.60;;;25.30;94.60;;;;;;6165004;23;20409;-84
2022/10/18 12:01:36;;;;;;;6.07;5.10;;;24.90;95.20;;;;;;6166094;23;20431;-84
2022/10/18 12:04:08;;;;;;;6.80;5.17;;;24.20;96.30;;;;;;6166127;23;20395;-84
2022/10/18 12:06:38;;;;;;;6.93;5.50;;;24.10;96.90;;;;;;6165733;23;20402;-84
2022/10/18 12:09:19;;;;;;;9.90;7.43;;;24.10;97.30;;;;;;6166345;23;20419;-84
2022/10/18 12:11:50;;;;;;;6.03;5.37;;;23.60;97.30;;;;;;6167338;23;20464;-85
2022/10/18 12:14:25;;;;;;;4.60;4.20;;;23.60;98.30;;;;;;6166947;23;20456;-84
2022/10/18 12:16:54;;;;;;;8.00;5.03;;;23.70;98.30;;;;;;6166594;23;20399;-85
2022/10/18 12:19:25;;;;;;;4.97;4.57;;;24.00;98.50;;;;;;6167971;23;20407;-85
2022/10/18 12:21:52;;;;;;;4.50;3.90;;;24.70;98.20;;;;;;6166814;23;20480;-85
2022/10/18 12:24:25;;;;;;;10.17;3.60;;;26.10;96.60;;;;;;6166563;23;20428;-85
2022/10/18 12:26:57;;;;;;;4.27;3.43;;;27.40;93.90;;;;;;6166945;23;20974;-85
2022/10/18 12:29:29;;;;;;;4.63;2.83;;;28.40;92.10;;;;;;6167640;23;20887;-85
2022/10/18 12:31:59;;;;;;;2.73;2.50;;;29.00;90.80;;;;;;6167137;23;20781;-85
2022/10/18 12:34:33;;;;;;;3.90;3.07;;;29.80;88.60;;;;;;6167542;23;20415;-85
2022/10/18 12:37:33;;;;;;;3.87;3.13;;;30.20;85.10;;;;;;6167302;23;20393;-85
2022/10/18 12:40:05;;;;;;;3.10;2.70;;;31.00;83.20;;;;;;6168056;23;20412;-85
2022/10/18 12:42:34;;;;;;;4.10;2.90;;;31.80;76.80;;;;;;6172034;23;20463;-85
2022/10/18 12:45:03;;;;;;;6.50;2.57;;;32.10;76.30;;;;;;6169340;23;20412;-85
2022/10/18 12:47:30;;;;;;;3.33;2.80;;;32.40;75.00;;;;;;6167796;23;20474;-85
2022/10/18 12:50:00;;;;;;;2.30;2.10;;;32.30;71.80;;;;;;6179352;23;20481;-84
2022/10/18 12:52:28;;;;;;;3.33;2.33;;;32.00;71.40;;;;;;6179588;23;20424;-85
2022/10/18 12:55:07;;;;;;;2.27;2.17;;;31.40;70.50;;;;;;6169060;23;20411;-85
2022/10/18 12:58:05;;;;;;;1.63;1.53;;;30.60;72.10;;;;;;6168848;23;20403;-85
2022/10/18 13:01:01;;;;;;;2.87;2.00;;;30.70;72.00;;;;;;6166807;23;20403;-85
2022/10/18 13:03:51;;;;;;;2.40;1.97;;;30.90;72.00;;;;;;6166378;23;20745;-85
2022/10/18 13:06:19;;;;;;;1.83;1.73;;;31.30;71.90;;;;;;6167210;23;20391;-85
2022/10/18 13:08:47;;;;;;;2.10;2.00;;;30.90;71.30;;;;;;6165817;23;20414;-85
2022/10/18 13:11:28;;;;;;;4.70;2.43;;;30.30;72.80;;;;;;6165295;23;20688;-85
2022/10/18 13:14:19;;;;;;;2.63;2.43;;;30.00;75.00;;;;;;6166394;23;20484;-85
2022/10/18 13:16:52;;;;;;;2.33;2.07;;;30.10;73.80;;;;;;6164607;23;20402;-84
2022/10/18 13:19:27;;;;;;;2.50;2.30;;;29.10;75.30;;;;;;6163255;23;20445;-84
2022/10/18 13:22:13;;;;;;;2.00;1.90;;;27.80;78.70;;;;;;6163960;23;20451;-84
2022/10/18 13:24:44;;;;;;;4.23;2.30;;;26.50;81.40;;;;;;6162621;23;20396;-84
2022/10/18 13:27:31;;;;;;;2.63;2.03;;;25.60;85.90;;;;;;6162313;23;20407;-84
2022/10/18 13:30:19;;;;;;;3.17;2.87;;;24.60;90.40;;;;;;6160067;23;20400;-84
2022/10/18 13:32:53;;;;;;;5.70;3.20;;;24.50;92.30;;;;;;6159952;23;20434;-84
2022/10/18 13:35:57;;;;;;;3.53;2.67;;;25.10;92.90;;;;;;6161199;23;20407;-84
2022/10/18 13:38:38;;;;;;;2.77;2.57;;;25.90;91.10;;;;;;6161464;23;20411;-85